sensor_id;sensor_type;location;lat;lon;timestamp;P1;durP1;ratioP1;P2;durP2;ratioP2
80725;SDS011;70113;59.928;10.878;2023-06-22T17:40:15;4.88;;;2.20;;
80725;SDS011;70113;59.928;10.878;2023-06-22T17:42:43;4.97;;;2.40;;
80725;SDS011;70113;59.928;10.878;2023-06-22T17:47:42;5.50;;;2.25;;
80725;SDS011;70113;59.928;10.878;2023-06-22T17:50:08;5.35;;;2.50;;
80725;SDS011;70113;59.928;10.878;2023-06-22T17:52:34;4.22;;;2.50;;
80725;SDS011;70113;59.928;10.878;2023-06-22T17:55:01;6.00;;;2.83;;
80725;SDS011;70113;59.928;10.878;2023-06-22T17:57:35;5.53;;;2.15;;
80725;SDS011;70113;59.928;10.878;2023-06-22T18:00:06;3.90;;;2.10;;
80725;SDS011;70113;59.928;10.878;2023-06-22T18:02:41;5.57;;;2.47;;
80725;SDS011;70113;59.928;10.878;2023-06-22T18:05:08;4.43;;;2.20;;
80725;SDS011;70113;59.928;10.878;2023-06-22T18:07:35;5.15;;;2.78;;
80725;SDS011;70113;59.928;10.878;2023-06-22T18:10:05;5.20;;;2.10;;
80725;SDS011;70113;59.928;10.878;2023-06-22T18:12:33;5.20;;;2.03;;
80725;SDS011;70113;59.928;10.878;2023-06-22T18:14:59;4.88;;;2.58;;
80725;SDS011;70113;59.928;10.878;2023-06-22T18:17:26;4.00;;;2.15;;
80725;SDS011;70113;59.928;10.878;2023-06-22T18:19:52;4.78;;;2.40;;
80725;SDS011;70113;59.928;10.878;2023-06-22T18:22:20;5.82;;;2.30;;
80725;SDS011;70113;59.928;10.878;2023-06-22T18:24:48;5.68;;;2.45;;
80725;SDS011;70113;59.928;10.878;2023-06-22T18:27:15;5.10;;;2.10;;
80725;SDS011;70113;59.928;10.878;2023-06-22T18:29:41;5.20;;;2.13;;
80725;SDS011;70113;59.928;10.878;2023-06-22T18:32:10;5.07;;;2.38;;
80725;SDS011;70113;59.928;10.878;2023-06-22T18:34:39;5.82;;;2.22;;
80725;SDS011;70113;59.928;10.878;2023-06-22T18:37:07;4.82;;;2.30;;
80725;SDS011;70113;59.928;10.878;2023-06-22T18:39:39;4.27;;;2.27;;
80725;SDS011;70113;59.928;10.878;2023-06-22T18:42:08;5.78;;;2.03;;
80725;SDS011;70113;59.928;10.878;2023-06-22T18:44:34;4.97;;;2.00;;
80725;SDS011;70113;59.928;10.878;2023-06-22T18:47:01;4.35;;;2.47;;
80725;SDS011;70113;59.928;10.878;2023-06-22T18:49:44;8.00;;;2.38;;
80725;SDS011;70113;59.928;10.878;2023-06-22T18:52:23;7.17;;;2.50;;
80725;SDS011;70113;59.928;10.878;2023-06-22T18:54:50;3.47;;;2.10;;
80725;SDS011;70113;59.928;10.878;2023-06-22T19:10:23;4.70;;;1.90;;
80725;SDS011;70113;59.928;10.878;2023-06-22T19:12:51;4.43;;;1.90;;
80725;SDS011;70113;59.928;10.878;2023-06-22T19:15:20;5.60;;;2.30;;
80725;SDS011;70113;59.928;10.878;2023-06-22T19:17:47;3.50;;;1.90;;
80725;SDS011;70113;59.928;10.878;2023-06-22T19:20:13;4.75;;;1.98;;
80725;SDS011;70113;59.928;10.878;2023-06-22T19:22:55;6.13;;;2.58;;
80725;SDS011;70113;59.928;10.878;2023-06-22T19:25:26;5.60;;;2.55;;
80725;SDS011;70113;59.928;10.878;2023-06-22T19:27:53;4.93;;;2.00;;
80725;SDS011;70113;59.928;10.878;2023-06-22T19:30:20;3.95;;;1.90;;
80725;SDS011;70113;59.928;10.878;2023-06-22T19:32:50;3.65;;;1.98;;
80725;SDS011;70113;59.928;10.878;2023-06-22T19:35:17;4.47;;;2.03;;
80725;SDS011;70113;59.928;10.878;2023-06-22T19:37:45;4.97;;;2.00;;
80725;SDS011;70113;59.928;10.878;2023-06-22T19:40:12;5.18;;;2.10;;
80725;SDS011;70113;59.928;10.878;2023-06-22T19:42:42;4.68;;;2.10;;
80725;SDS011;70113;59.928;10.878;2023-06-22T19:45:09;5.78;;;2.22;;
80725;SDS011;70113;59.928;10.878;2023-06-22T19:47:39;4.63;;;2.10;;
80725;SDS011;70113;59.928;10.878;2023-06-22T19:50:05;4.28;;;1.60;;
80725;SDS011;70113;59.928;10.878;2023-06-22T19:52:35;5.10;;;1.90;;
80725;SDS011;70113;59.928;10.878;2023-06-22T19:55:01;4.30;;;2.05;;
80725;SDS011;70113;59.928;10.878;2023-06-22T19:57:35;4.38;;;2.03;;
80725;SDS011;70113;59.928;10.878;2023-06-22T20:00:02;4.85;;;1.92;;
80725;SDS011;70113;59.928;10.878;2023-06-22T20:02:39;3.75;;;1.67;;
80725;SDS011;70113;59.928;10.878;2023-06-22T20:05:06;3.75;;;2.08;;
80725;SDS011;70113;59.928;10.878;2023-06-22T20:07:42;4.30;;;2.15;;
80725;SDS011;70113;59.928;10.878;2023-06-22T20:12:34;5.10;;;2.13;;
80725;SDS011;70113;59.928;10.878;2023-06-22T20:15:13;4.60;;;1.95;;
80725;SDS011;70113;59.928;10.878;2023-06-22T20:17:52;6.13;;;2.10;;
80725;SDS011;70113;59.928;10.878;2023-06-22T20:20:31;4.30;;;2.38;;
80725;SDS011;70113;59.928;10.878;2023-06-22T20:22:58;3.58;;;1.73;;
80725;SDS011;70113;59.928;10.878;2023-06-22T20:25:25;3.33;;;1.77;;
80725;SDS011;70113;59.928;10.878;2023-06-22T20:27:52;3.40;;;1.63;;
80725;SDS011;70113;59.928;10.878;2023-06-22T20:30:19;3.15;;;1.65;;
80725;SDS011;70113;59.928;10.878;2023-06-22T20:32:55;3.63;;;1.90;;
80725;SDS011;70113;59.928;10.878;2023-06-22T20:35:21;3.47;;;1.65;;
80725;SDS011;70113;59.928;10.878;2023-06-22T20:37:49;4.00;;;1.83;;
80725;SDS011;70113;59.928;10.878;2023-06-22T20:40:21;4.55;;;1.83;;
80725;SDS011;70113;59.928;10.878;2023-06-22T20:42:54;3.40;;;1.67;;
80725;SDS011;70113;59.928;10.878;2023-06-22T20:45:19;4.28;;;1.77;;
80725;SDS011;70113;59.928;10.878;2023-06-22T20:47:45;3.22;;;1.60;;
80725;SDS011;70113;59.928;10.878;2023-06-22T20:50:11;4.32;;;1.50;;
80725;SDS011;70113;59.928;10.878;2023-06-22T20:52:37;4.97;;;1.92;;
80725;SDS011;70113;59.928;10.878;2023-06-22T20:55:05;4.35;;;1.80;;
80725;SDS011;70113;59.928;10.878;2023-06-22T20:57:31;3.47;;;1.70;;
80725;SDS011;70113;59.928;10.878;2023-06-22T20:59:57;3.97;;;1.67;;
80725;SDS011;70113;59.928;10.878;2023-06-22T21:02:24;3.35;;;1.83;;
80725;SDS011;70113;59.928;10.878;2023-06-22T21:04:49;3.33;;;1.48;;
80725;SDS011;70113;59.928;10.878;2023-06-22T21:07:16;3.10;;;1.70;;
80725;SDS011;70113;59.928;10.878;2023-06-22T21:09:42;3.67;;;1.60;;
80725;SDS011;70113;59.928;10.878;2023-06-22T21:12:08;4.47;;;1.90;;
80725;SDS011;70113;59.928;10.878;2023-06-22T21:14:33;3.58;;;1.63;;
80725;SDS011;70113;59.928;10.878;2023-06-22T21:16:59;3.35;;;1.70;;
80725;SDS011;70113;59.928;10.878;2023-06-22T21:19:25;3.67;;;1.40;;
80725;SDS011;70113;59.928;10.878;2023-06-22T21:21:51;3.10;;;1.25;;
80725;SDS011;70113;59.928;10.878;2023-06-22T21:24:16;7.38;;;1.50;;
80725;SDS011;70113;59.928;10.878;2023-06-22T21:26:42;4.05;;;1.60;;
80725;SDS011;70113;59.928;10.878;2023-06-22T21:29:08;4.18;;;1.52;;
80725;SDS011;70113;59.928;10.878;2023-06-22T21:31:34;3.45;;;1.75;;
80725;SDS011;70113;59.928;10.878;2023-06-22T21:34:00;3.42;;;1.80;;
80725;SDS011;70113;59.928;10.878;2023-06-22T21:36:26;2.95;;;1.40;;
80725;SDS011;70113;59.928;10.878;2023-06-22T21:38:51;3.20;;;1.38;;
80725;SDS011;70113;59.928;10.878;2023-06-22T21:41:18;5.18;;;1.50;;
80725;SDS011;70113;59.928;10.878;2023-06-22T21:43:43;5.03;;;1.90;;
80725;SDS011;70113;59.928;10.878;2023-06-22T21:46:09;3.60;;;1.60;;
80725;SDS011;70113;59.928;10.878;2023-06-22T21:48:35;4.35;;;1.52;;
80725;SDS011;70113;59.928;10.878;2023-06-22T21:51:00;2.85;;;1.58;;
80725;SDS011;70113;59.928;10.878;2023-06-22T21:53:26;3.70;;;1.50;;
80725;SDS011;70113;59.928;10.878;2023-06-22T21:55:52;3.45;;;1.52;;
80725;SDS011;70113;59.928;10.878;2023-06-22T21:58:19;2.90;;;1.35;;
80725;SDS011;70113;59.928;10.878;2023-06-22T22:00:53;3.55;;;1.70;;
80725;SDS011;70113;59.928;10.878;2023-06-22T22:03:25;3.55;;;1.70;;
80725;SDS011;70113;59.928;10.878;2023-06-22T22:05:55;2.63;;;1.40;;
80725;SDS011;70113;59.928;10.878;2023-06-22T22:08:21;4.13;;;1.67;;
80725;SDS011;70113;59.928;10.878;2023-06-22T22:10:47;3.60;;;1.60;;
80725;SDS011;70113;59.928;10.878;2023-06-22T22:13:13;3.83;;;1.52;;
80725;SDS011;70113;59.928;10.878;2023-06-22T22:15:39;3.35;;;1.45;;
80725;SDS011;70113;59.928;10.878;2023-06-22T22:18:05;3.67;;;1.80;;
80725;SDS011;70113;59.928;10.878;2023-06-22T22:20:33;3.20;;;1.55;;
80725;SDS011;70113;59.928;10.878;2023-06-22T22:23:00;3.25;;;1.65;;
80725;SDS011;70113;59.928;10.878;2023-06-22T22:25:26;3.15;;;1.70;;
80725;SDS011;70113;59.928;10.878;2023-06-22T22:27:52;3.28;;;1.40;;
80725;SDS011;70113;59.928;10.878;2023-06-22T22:30:18;3.80;;;1.60;;
80725;SDS011;70113;59.928;10.878;2023-06-22T22:32:44;2.38;;;1.20;;
80725;SDS011;70113;59.928;10.878;2023-06-22T22:35:10;4.28;;;1.80;;
80725;SDS011;70113;59.928;10.878;2023-06-22T22:37:39;3.42;;;1.60;;
80725;SDS011;70113;59.928;10.878;2023-06-22T22:40:06;4.78;;;1.90;;
80725;SDS011;70113;59.928;10.878;2023-06-22T22:42:38;3.45;;;1.40;;
80725;SDS011;70113;59.928;10.878;2023-06-22T22:45:04;3.17;;;1.60;;
80725;SDS011;70113;59.928;10.878;2023-06-22T22:47:32;2.95;;;1.60;;
80725;SDS011;70113;59.928;10.878;2023-06-22T22:49:59;4.55;;;1.40;;
80725;SDS011;70113;59.928;10.878;2023-06-22T22:52:26;4.43;;;1.58;;
80725;SDS011;70113;59.928;10.878;2023-06-22T22:54:54;3.38;;;1.50;;
80725;SDS011;70113;59.928;10.878;2023-06-22T22:57:20;4.00;;;1.52;;
80725;SDS011;70113;59.928;10.878;2023-06-22T22:59:46;4.20;;;1.50;;
80725;SDS011;70113;59.928;10.878;2023-06-22T23:02:12;3.15;;;1.80;;
80725;SDS011;70113;59.928;10.878;2023-06-22T23:04:38;3.08;;;1.50;;
80725;SDS011;70113;59.928;10.878;2023-06-22T23:07:04;4.97;;;1.58;;
80725;SDS011;70113;59.928;10.878;2023-06-22T23:09:30;2.42;;;1.38;;
80725;SDS011;70113;59.928;10.878;2023-06-22T23:11:56;3.85;;;1.50;;
80725;SDS011;70113;59.928;10.878;2023-06-22T23:14:21;4.45;;;1.55;;
80725;SDS011;70113;59.928;10.878;2023-06-22T23:16:47;3.15;;;1.83;;
80725;SDS011;70113;59.928;10.878;2023-06-22T23:19:13;3.40;;;1.40;;
80725;SDS011;70113;59.928;10.878;2023-06-22T23:21:39;4.07;;;1.70;;
80725;SDS011;70113;59.928;10.878;2023-06-22T23:24:05;3.00;;;1.35;;
80725;SDS011;70113;59.928;10.878;2023-06-22T23:26:32;5.25;;;1.67;;
80725;SDS011;70113;59.928;10.878;2023-06-22T23:28:59;3.40;;;1.35;;
80725;SDS011;70113;59.928;10.878;2023-06-22T23:31:25;4.20;;;1.80;;
80725;SDS011;70113;59.928;10.878;2023-06-22T23:33:51;3.95;;;1.48;;
80725;SDS011;70113;59.928;10.878;2023-06-22T23:36:16;3.92;;;1.98;;
80725;SDS011;70113;59.928;10.878;2023-06-22T23:38:42;5.07;;;1.60;;
80725;SDS011;70113;59.928;10.878;2023-06-22T23:41:09;3.50;;;1.38;;
80725;SDS011;70113;59.928;10.878;2023-06-22T23:43:37;5.00;;;1.90;;
80725;SDS011;70113;59.928;10.878;2023-06-22T23:46:04;4.32;;;1.88;;
80725;SDS011;70113;59.928;10.878;2023-06-22T23:48:30;4.45;;;1.77;;
80725;SDS011;70113;59.928;10.878;2023-06-22T23:50:55;2.40;;;1.30;;
80725;SDS011;70113;59.928;10.878;2023-06-22T23:53:25;3.40;;;1.70;;
80725;SDS011;70113;59.928;10.878;2023-06-22T23:55:52;4.07;;;1.80;;
80725;SDS011;70113;59.928;10.878;2023-06-22T23:58:18;3.83;;;1.60;;
